createdAt,value
2022-11-17T00:02:12.493Z,2.47
2022-11-17T00:07:14.963Z,2.03
2022-11-17T00:12:35.750Z,3.10
2022-11-17T00:17:37.997Z,3.27
2022-11-17T00:22:40.103Z,2.12
2022-11-17T00:27:42.144Z,2.00
2022-11-17T00:33:03.161Z,2.83
2022-11-17T00:38:17.227Z,2.73
2022-11-17T00:43:19.282Z,2.40
2022-11-17T00:48:21.305Z,2.30
2022-11-17T00:53:23.372Z,3.28
2022-11-17T00:58:25.404Z,3.78
2022-11-17T01:03:27.751Z,2.20
2022-11-17T01:08:29.865Z,2.83
2022-11-17T01:13:32.306Z,2.55
2022-11-17T01:18:35.629Z,1.62
2022-11-17T01:23:40.011Z,2.90
2022-11-17T01:28:42.222Z,2.17
2022-11-17T01:33:45.345Z,2.70
2022-11-17T01:38:47.486Z,2.00
2022-11-17T01:43:51.040Z,1.52
2022-11-17T01:48:57.382Z,1.60
2022-11-17T01:54:00.426Z,1.60
2022-11-17T01:59:10.065Z,2.50
2022-11-17T02:04:12.194Z,1.70
2022-11-17T02:09:14.353Z,2.00
2022-11-17T02:14:16.650Z,1.95
2022-11-17T02:19:22.558Z,2.65
2022-11-17T02:24:37.771Z,1.93
2022-11-17T02:29:42.509Z,1.53
2022-11-17T02:35:02.752Z,1.63
2022-11-17T02:40:13.461Z,1.70
2022-11-17T02:45:24.781Z,2.77
2022-11-17T02:50:29.471Z,2.20
2022-11-17T02:55:35.300Z,2.90
2022-11-17T03:00:43.976Z,2.60
2022-11-17T03:06:12.570Z,2.93
2022-11-17T03:11:14.879Z,2.07
2022-11-17T03:16:30.007Z,2.05
2022-11-17T03:21:51.119Z,2.05
2022-11-17T03:27:10.034Z,2.05
2022-11-17T03:32:14.950Z,2.80
2022-11-17T03:37:21.728Z,2.00
2022-11-17T03:42:30.445Z,2.10
2022-11-17T03:47:34.444Z,1.93
2022-11-17T03:52:37.947Z,2.03
2022-11-17T03:58:06.958Z,2.03
2022-11-17T04:03:09.131Z,2.53
2022-11-17T04:08:11.203Z,1.65
2022-11-17T04:13:31.753Z,1.87
2022-11-17T04:18:33.901Z,2.00
2022-11-17T04:23:36.282Z,2.05
2022-11-17T04:28:42.277Z,2.37
2022-11-17T04:33:51.560Z,2.67
2022-11-17T04:38:55.929Z,2.00
2022-11-17T04:43:58.692Z,1.80
2022-11-17T04:54:04.619Z,1.95
2022-11-17T04:59:07.592Z,2.00
2022-11-17T05:04:12.097Z,1.30
2022-11-17T05:09:16.556Z,1.70
2022-11-17T05:14:20.760Z,1.50
2022-11-17T05:19:27.722Z,1.50
2022-11-17T05:24:30.182Z,2.00
2022-11-17T05:29:32.208Z,1.60
2022-11-17T05:34:34.705Z,1.37
2022-11-17T05:39:36.746Z,2.37
2022-11-17T05:44:39.872Z,1.83
2022-11-17T05:49:41.977Z,1.47
2022-11-17T05:54:44.016Z,1.35
2022-11-17T05:59:53.091Z,1.33
2022-11-17T06:04:55.575Z,1.20
2022-11-17T06:09:57.713Z,1.33
2022-11-17T06:14:59.771Z,1.95
2022-11-17T06:20:12.270Z,1.75
2022-11-17T06:25:15.820Z,1.55
2022-11-17T06:30:18.289Z,1.60
2022-11-17T06:35:20.527Z,1.27
2022-11-17T06:40:22.555Z,1.40
2022-11-17T06:45:24.606Z,1.70
2022-11-17T06:50:26.720Z,1.40
2022-11-17T06:55:29.422Z,1.80
2022-11-17T07:05:35.244Z,1.10
2022-11-17T07:10:37.867Z,1.60
2022-11-17T07:15:40.558Z,1.00
2022-11-17T07:20:42.676Z,1.52
2022-11-17T07:25:44.851Z,1.42
2022-11-17T07:30:46.981Z,1.35
2022-11-17T07:35:49.303Z,1.67
2022-11-17T07:40:51.904Z,1.02
2022-11-17T07:45:55.270Z,1.33
2022-11-17T07:51:01.612Z,1.80
2022-11-17T07:56:06.617Z,2.20
2022-11-17T08:01:16.690Z,2.17
2022-11-17T08:06:18.925Z,1.80
2022-11-17T08:11:21.199Z,1.05
2022-11-17T08:16:23.331Z,1.15
2022-11-17T08:21:25.832Z,2.10
2022-11-17T08:26:27.946Z,1.58
2022-11-17T08:31:30.380Z,0.73
2022-11-17T08:36:32.522Z,0.90
2022-11-17T08:41:34.688Z,1.45
2022-11-17T08:46:36.917Z,1.35
2022-11-17T08:51:39.181Z,2.28
2022-11-17T08:56:41.472Z,2.37
2022-11-17T09:01:43.763Z,2.60
2022-11-17T09:06:46.039Z,1.92
2022-11-17T09:11:48.365Z,1.87
2022-11-17T09:16:50.557Z,1.70
2022-11-17T09:21:54.785Z,1.87
2022-11-17T09:26:57.593Z,1.70
2022-11-17T09:31:59.733Z,1.62
2022-11-17T09:37:02.342Z,1.25
2022-11-17T09:42:04.667Z,1.58
2022-11-17T09:47:25.727Z,0.82
2022-11-17T09:53:03.176Z,1.25
2022-11-17T09:58:38.586Z,1.07
2022-11-17T10:03:46.150Z,1.45
2022-11-17T10:09:26.210Z,0.70
2022-11-17T10:14:30.083Z,1.55
2022-11-17T10:19:36.486Z,1.33
2022-11-17T10:24:41.448Z,1.65
2022-11-17T10:30:05.376Z,1.58
2022-11-17T10:35:19.482Z,1.60
2022-11-17T10:40:26.002Z,2.08
2022-11-17T10:45:28.700Z,1.80
2022-11-17T10:50:30.822Z,1.67
2022-11-17T10:55:33.990Z,1.52
2022-11-17T11:00:37.406Z,1.23
2022-11-17T11:05:57.952Z,1.20
2022-11-17T11:11:02.018Z,1.87
2022-11-17T11:16:05.246Z,1.70
2022-11-17T11:21:34.227Z,1.95
2022-11-17T11:26:39.008Z,1.65
2022-11-17T11:32:09.533Z,1.70
2022-11-17T11:37:13.564Z,2.15
2022-11-17T11:42:30.575Z,2.20
2022-11-17T11:48:00.725Z,1.98
2022-11-17T11:53:21.554Z,1.58
2022-11-17T11:58:24.800Z,2.12
2022-11-17T12:03:45.586Z,1.98
2022-11-17T12:09:12.925Z,1.80
2022-11-17T12:14:18.510Z,1.50
2022-11-17T12:19:42.413Z,2.05
2022-11-17T12:24:46.013Z,1.50
2022-11-17T12:29:48.575Z,1.95
2022-11-17T12:35:25.539Z,1.67
2022-11-17T12:40:39.516Z,2.45
2022-11-17T12:46:16.448Z,2.10
2022-11-17T12:51:21.500Z,1.65
2022-11-17T12:56:32.477Z,2.42
2022-11-17T13:01:55.747Z,1.62
2022-11-17T13:07:06.698Z,1.73
2022-11-17T13:12:10.984Z,1.65
2022-11-17T13:17:13.799Z,1.50
2022-11-17T13:27:26.528Z,1.20
2022-11-17T13:32:28.860Z,1.05
2022-11-17T13:37:31.112Z,0.50
2022-11-17T13:42:34.285Z,0.60
2022-11-17T13:47:36.361Z,0.95
2022-11-17T13:52:45.408Z,0.90
2022-11-17T13:58:00.248Z,0.35
2022-11-17T14:03:05.454Z,0.60
2022-11-17T14:08:22.147Z,0.82
2022-11-17T14:13:29.846Z,0.70
2022-11-17T14:18:34.323Z,0.55
2022-11-17T14:23:36.481Z,0.67
2022-11-17T14:28:38.615Z,0.60
2022-11-17T14:33:41.046Z,0.35
2022-11-17T14:38:46.930Z,2.97
2022-11-17T14:43:50.365Z,3.17
2022-11-17T14:48:53.764Z,4.73
2022-11-17T14:53:55.878Z,1.33
2022-11-17T14:58:59.735Z,2.60
2022-11-17T15:04:20.789Z,2.73
2022-11-17T15:14:27.911Z,0.40
2022-11-17T15:19:30.046Z,0.30
2022-11-17T15:24:32.237Z,0.40
2022-11-17T15:29:34.726Z,0.47
2022-11-17T15:34:36.820Z,0.20
2022-11-17T15:39:38.931Z,0.90
2022-11-17T15:44:41.446Z,1.27
2022-11-17T15:49:43.691Z,0.35
2022-11-17T15:54:45.790Z,0.30
2022-11-17T15:59:48.346Z,0.60
2022-11-17T16:04:50.381Z,0.22
2022-11-17T16:09:52.772Z,0.20
2022-11-17T16:14:54.880Z,1.73
2022-11-17T16:19:56.991Z,0.77
2022-11-17T16:24:59.129Z,0.80
2022-11-17T16:30:01.762Z,0.77
2022-11-17T16:40:06.872Z,3.65
2022-11-17T16:45:09.437Z,3.80
2022-11-17T16:50:12.020Z,5.60
2022-11-17T16:55:14.564Z,3.35
2022-11-17T17:00:17.755Z,3.85
2022-11-17T17:05:20.211Z,4.07
2022-11-17T17:10:23.053Z,3.45
2022-11-17T17:20:27.251Z,1.30
2022-11-17T17:25:29.435Z,1.73
2022-11-17T17:30:31.501Z,1.55
2022-11-17T17:35:34.662Z,1.20
2022-11-17T17:40:36.775Z,8.70
2022-11-17T17:45:38.852Z,6.28
2022-11-17T17:50:41.021Z,4.97
2022-11-17T17:55:45.652Z,4.85
2022-11-17T18:00:49.716Z,7.23
2022-11-17T18:05:51.817Z,8.83
2022-11-17T18:10:59.119Z,8.43
2022-11-17T18:16:22.175Z,5.80
2022-11-17T18:21:24.789Z,17.80
2022-11-17T18:26:32.897Z,15.57
2022-11-17T18:31:36.981Z,7.23
2022-11-17T18:36:39.049Z,5.53
2022-11-17T18:41:41.255Z,4.20
2022-11-17T18:46:43.471Z,4.60
2022-11-17T18:51:46.110Z,4.45
2022-11-17T18:56:49.938Z,2.45
2022-11-17T19:01:52.089Z,3.20
2022-11-17T19:06:54.201Z,3.30
2022-11-17T19:11:56.439Z,3.10
2022-11-17T19:16:58.528Z,4.03
2022-11-17T19:22:01.006Z,4.55
2022-11-17T19:27:03.699Z,3.08
2022-11-17T19:32:05.797Z,2.53
2022-11-17T19:37:07.898Z,3.08
2022-11-17T19:42:09.995Z,2.90
2022-11-17T19:47:12.084Z,2.87
2022-11-17T19:52:14.565Z,3.37
2022-11-17T19:57:16.789Z,2.85
2022-11-17T20:02:20.009Z,3.17
2022-11-17T20:07:22.185Z,2.20
2022-11-17T20:12:24.358Z,3.40
2022-11-17T20:17:26.621Z,3.47
2022-11-17T20:22:28.751Z,7.62
2022-11-17T20:27:31.321Z,6.57
2022-11-17T20:32:35.359Z,10.52
2022-11-17T20:37:37.549Z,8.70
2022-11-17T20:42:39.659Z,4.07
2022-11-17T20:47:41.817Z,3.35
2022-11-17T20:52:43.899Z,2.87
2022-11-17T20:57:46.054Z,10.50
2022-11-17T21:02:49.616Z,9.90
2022-11-17T21:07:51.686Z,9.40
2022-11-17T21:12:53.759Z,8.95
2022-11-17T21:18:14.544Z,6.43
2022-11-17T21:23:16.707Z,5.30
2022-11-17T21:28:18.881Z,5.80
2022-11-17T21:33:20.971Z,4.87
2022-11-17T21:38:23.144Z,5.35
2022-11-17T21:43:25.195Z,5.45
2022-11-17T21:48:27.263Z,4.15
2022-11-17T21:53:30.398Z,4.68
2022-11-17T21:58:33.719Z,3.27
2022-11-17T22:03:36.587Z,3.23
2022-11-17T22:08:40.785Z,3.80
2022-11-17T22:13:43.013Z,3.87
2022-11-17T22:18:45.057Z,3.55
2022-11-17T22:23:47.151Z,3.12
2022-11-17T22:28:54.130Z,3.30
2022-11-17T22:33:56.224Z,4.20
2022-11-17T22:38:58.376Z,3.83
2022-11-17T22:44:00.853Z,3.05
2022-11-17T22:49:03.210Z,3.62
2022-11-17T22:54:06.585Z,3.33
2022-11-17T22:59:09.049Z,3.30
2022-11-17T23:04:12.198Z,2.62
2022-11-17T23:09:14.465Z,1.85
2022-11-17T23:14:16.845Z,2.08
2022-11-17T23:19:19.099Z,1.60
2022-11-17T23:24:21.854Z,1.48
2022-11-17T23:29:23.932Z,1.62
2022-11-17T23:34:27.572Z,2.05
2022-11-17T23:39:29.623Z,1.40
2022-11-17T23:44:31.844Z,1.50
2022-11-17T23:49:33.908Z,1.15
2022-11-17T23:54:35.955Z,1.70
2022-11-17T23:59:38.278Z,1.90
